KLCH/LCH METAR and TAF weather

Enter ICAO airport designator
Station Type Date Time Source
KLCH METAR 2020/08/12 16:53 UTC NOAA

KLCH 121653Z 28007KT 10SM FEW032 FEW060 32/23 A3000 RMK AO2 SLP167 T03220228


Station Type Date Time Source
KLCH Decoded METAR 2020/08/12 16:53 UTC NOAA

LAKE CHARLES REGIONAL AIRPORT , LA, United States (KLCH) 30-12N 093-23W 3M
Aug 12, 2020 - 12:53 PM EDT / 2020.08.12 1653 UTC
Wind: from the W (280 degrees) at 8 MPH (7 KT):0
Visibility: 10 mile(s):0
Sky conditions: mostly clear
Temperature: 90.0 F (32.2 C)
Heat index: 98.1 F (36.7 C):1
Dew Point: 73.0 F (22.8 C)
Relative Humidity: 57%
Pressure (altimeter): 30 in. Hg (1015 hPa)
ob: KLCH 121653Z 28007KT 10SM FEW032 FEW060 32/23 A3000 RMK AO2 SLP167 T03220228
cycle: 17

Station Type Date Time Source
KLCH TAF 2020/08/12 12:24 UTC NOAA

TAF KLCH 121120Z 1212/1312 VRB03KT P6SM FEW020
FM121400 25006KT P6SM SCT025
FM121700 22008KT P6SM VCTS FEW025CB SCT040
FM122200 21006KT P6SM FEW050

Example: see airport list